createdAt,value
2017-06-21T00:01:55.231Z,64.40
2017-06-21T00:04:26.414Z,64.20
2017-06-21T00:07:01.846Z,63.50
2017-06-21T00:09:30.755Z,63.50
2017-06-21T00:12:02.718Z,63.30
2017-06-21T00:14:36.407Z,63.40
2017-06-21T00:17:10.226Z,63.20
2017-06-21T00:20:03.222Z,63.10
2017-06-21T00:22:47.838Z,63.20
2017-06-21T00:25:27.503Z,63.20
2017-06-21T00:28:22.538Z,63.40
2017-06-21T00:31:03.927Z,63.50
2017-06-21T00:33:45.390Z,63.50
2017-06-21T00:36:17.510Z,63.40
2017-06-21T00:42:03.150Z,63.60
2017-06-21T00:44:53.962Z,63.80
2017-06-21T00:47:46.514Z,63.80
2017-06-21T00:50:20.230Z,63.80
2017-06-21T00:52:54.581Z,63.90
2017-06-21T00:55:29.106Z,63.90
2017-06-21T00:58:13.498Z,64.10
2017-06-21T01:00:42.458Z,64.00
2017-06-21T01:03:25.822Z,64.10
2017-06-21T01:08:49.206Z,64.80
2017-06-21T01:11:27.154Z,64.80
2017-06-21T01:14:05.270Z,65.00
2017-06-21T01:16:45.474Z,65.20
2017-06-21T01:19:19.195Z,64.90
2017-06-21T01:22:16.349Z,65.20
2017-06-21T01:24:54.885Z,65.10
2017-06-21T01:27:25.941Z,65.30
2017-06-21T01:29:53.954Z,65.30
2017-06-21T01:32:21.966Z,65.20
2017-06-21T01:35:00.885Z,65.10
2017-06-21T01:37:36.417Z,65.20
2017-06-21T01:40:25.269Z,65.50
2017-06-21T01:43:00.751Z,65.50
2017-06-21T01:45:30.721Z,65.60
2017-06-21T01:48:00.681Z,65.50
2017-06-21T01:50:32.057Z,65.50
2017-06-21T01:53:04.633Z,66.10
2017-06-21T01:55:36.309Z,66.00
2017-06-21T01:58:24.784Z,66.30
2017-06-21T02:00:52.813Z,66.20
2017-06-21T02:03:21.594Z,66.30
2017-06-21T02:06:05.773Z,66.40
2017-06-21T02:08:48.257Z,66.30
2017-06-21T02:14:22.733Z,66.00
2017-06-21T02:19:52.132Z,66.40
2017-06-21T02:22:20.113Z,66.30
2017-06-21T02:27:41.841Z,65.60
2017-06-21T02:30:26.289Z,66.00
2017-06-21T02:33:10.212Z,66.80
2017-06-21T02:35:52.937Z,66.60
2017-06-21T02:38:20.972Z,66.60
2017-06-21T02:40:54.061Z,66.70
2017-06-21T02:43:26.876Z,66.50
2017-06-21T02:45:59.733Z,67.00
2017-06-21T02:48:36.376Z,66.90
2017-06-21T02:51:18.841Z,66.70
2017-06-21T02:56:41.117Z,66.70
2017-06-21T02:59:09.160Z,66.70
2017-06-21T03:01:37.937Z,66.80
2017-06-21T03:04:06.113Z,66.70
2017-06-21T03:06:34.140Z,66.70
2017-06-21T03:09:02.161Z,66.90
2017-06-21T03:11:30.164Z,66.80
2017-06-21T03:13:58.200Z,66.80
2017-06-21T03:16:26.204Z,67.10
2017-06-21T03:18:54.364Z,67.10
2017-06-21T03:21:22.356Z,66.60
2017-06-21T03:23:50.360Z,66.50
2017-06-21T03:26:18.364Z,66.50
2017-06-21T03:28:46.411Z,66.70
2017-06-21T03:31:14.428Z,66.80
2017-06-21T03:33:42.440Z,67.80
2017-06-21T03:36:10.476Z,67.70
2017-06-21T03:38:38.480Z,67.90
2017-06-21T03:41:06.516Z,67.90
2017-06-21T03:43:35.448Z,68.00
2017-06-21T03:46:03.456Z,67.30
2017-06-21T03:48:31.467Z,67.50
2017-06-21T03:50:59.504Z,67.40
2017-06-21T03:53:27.612Z,67.50
2017-06-21T03:55:55.635Z,68.70
2017-06-21T03:58:23.679Z,70.00
2017-06-21T04:00:52.451Z,70.30
2017-06-21T04:03:20.488Z,70.20
2017-06-21T04:05:48.523Z,69.40
2017-06-21T04:08:16.540Z,69.50
2017-06-21T04:10:44.552Z,69.20
2017-06-21T04:13:13.340Z,69.50
2017-06-21T04:15:42.123Z,69.40
2017-06-21T04:18:10.891Z,69.30
2017-06-21T04:20:38.933Z,69.20
2017-06-21T04:23:06.944Z,68.80
2017-06-21T04:25:35.727Z,68.10
2017-06-21T04:28:03.743Z,68.00
2017-06-21T04:30:31.779Z,68.70
2017-06-21T04:33:00.579Z,68.70
2017-06-21T04:35:29.347Z,68.50
2017-06-21T04:37:58.127Z,67.90
2017-06-21T04:40:26.147Z,67.90
2017-06-21T04:42:54.167Z,68.10
2017-06-21T04:45:22.947Z,66.60
2017-06-21T04:47:50.963Z,67.40
2017-06-21T04:50:19.003Z,66.70
2017-06-21T04:52:47.779Z,65.10
2017-06-21T04:55:15.787Z,65.10
2017-06-21T04:57:43.823Z,65.70
2017-06-21T05:00:12.607Z,64.10
2017-06-21T05:02:40.619Z,64.10
2017-06-21T05:05:08.655Z,64.10
2017-06-21T05:07:36.679Z,63.80
2017-06-21T05:10:04.687Z,62.00
2017-06-21T05:12:33.667Z,63.30
2017-06-21T05:15:01.679Z,64.00
2017-06-21T05:17:29.691Z,64.00
2017-06-21T05:19:57.727Z,64.00
2017-06-21T05:22:25.735Z,63.00
2017-06-21T05:24:53.743Z,64.20
2017-06-21T05:27:21.755Z,64.10
2017-06-21T05:29:49.764Z,64.10
2017-06-21T05:32:17.770Z,64.10
2017-06-21T05:34:45.815Z,62.70
2017-06-21T05:37:14.590Z,63.70
2017-06-21T05:39:42.594Z,63.70
2017-06-21T05:42:10.630Z,63.30
2017-06-21T05:44:38.639Z,62.60
2017-06-21T05:47:06.647Z,62.30
2017-06-21T05:49:34.683Z,62.70
2017-06-21T05:52:02.686Z,62.50
2017-06-21T05:54:30.707Z,63.70
2017-06-21T05:56:58.779Z,62.90
2017-06-21T05:59:26.750Z,63.40
2017-06-21T06:01:55.074Z,64.00
2017-06-21T06:04:23.106Z,63.30
2017-06-21T06:06:51.110Z,62.70
2017-06-21T06:09:19.122Z,62.70
2017-06-21T06:11:47.158Z,62.00
2017-06-21T06:14:15.191Z,61.70
2017-06-21T06:16:43.195Z,62.50
2017-06-21T06:19:11.210Z,61.90
2017-06-21T06:21:39.226Z,62.40
2017-06-21T06:24:07.234Z,63.10
2017-06-21T06:26:36.042Z,62.30
2017-06-21T06:29:04.058Z,62.20
2017-06-21T06:31:32.074Z,61.20
2017-06-21T06:34:00.118Z,60.50
2017-06-21T06:36:28.894Z,60.90
2017-06-21T06:38:56.898Z,59.90
2017-06-21T06:41:24.930Z,60.00
2017-06-21T06:43:52.934Z,60.10
2017-06-21T06:46:20.942Z,61.50
2017-06-21T06:48:48.991Z,62.00
2017-06-21T06:51:16.998Z,60.80
2017-06-21T06:53:45.006Z,59.60
2017-06-21T06:56:13.789Z,60.90
2017-06-21T06:58:41.818Z,60.00
2017-06-21T07:01:09.825Z,59.40
2017-06-21T07:03:38.638Z,58.30
2017-06-21T07:06:06.649Z,58.20
2017-06-21T07:08:34.657Z,58.00
2017-06-21T07:11:03.470Z,56.10
2017-06-21T07:13:31.481Z,56.10
2017-06-21T07:15:59.494Z,56.40
2017-06-21T07:18:27.538Z,55.70
2017-06-21T07:20:55.546Z,56.40
2017-06-21T07:23:23.554Z,56.70
2017-06-21T07:25:51.597Z,56.70
2017-06-21T07:28:19.609Z,56.70
2017-06-21T07:30:47.617Z,56.00
2017-06-21T07:33:15.658Z,56.00
2017-06-21T07:35:43.670Z,55.30
2017-06-21T07:38:11.674Z,54.30
2017-06-21T07:40:39.713Z,54.30
2017-06-21T07:43:07.717Z,53.60
2017-06-21T07:45:35.725Z,53.80
2017-06-21T07:48:03.749Z,54.50
2017-06-21T07:50:31.758Z,54.50
2017-06-21T07:53:00.529Z,52.40
2017-06-21T07:55:28.561Z,52.30
2017-06-21T07:57:56.569Z,52.50
2017-06-21T08:00:24.581Z,52.70
2017-06-21T08:02:52.621Z,51.60
2017-06-21T08:05:21.397Z,53.50
2017-06-21T08:07:49.425Z,53.50
2017-06-21T08:10:17.470Z,52.90
2017-06-21T08:12:45.481Z,52.00
2017-06-21T08:15:13.489Z,52.00
2017-06-21T08:17:42.277Z,50.80
2017-06-21T08:20:11.049Z,51.80
2017-06-21T08:22:39.053Z,51.70
2017-06-21T08:25:07.493Z,51.60
2017-06-21T08:27:35.496Z,51.40
2017-06-21T08:30:03.513Z,51.40
2017-06-21T08:32:31.545Z,51.30
2017-06-21T08:34:59.551Z,51.30
2017-06-21T08:37:27.580Z,51.10
2017-06-21T08:39:56.344Z,49.80
2017-06-21T08:42:24.352Z,49.80
2017-06-21T08:44:52.356Z,49.00
2017-06-21T08:47:20.377Z,49.00
2017-06-21T08:49:48.380Z,50.10
2017-06-21T08:52:16.393Z,49.70
2017-06-21T08:54:45.197Z,50.40
2017-06-21T08:57:13.212Z,50.30
2017-06-21T08:59:41.221Z,49.40
2017-06-21T09:02:09.260Z,49.40
2017-06-21T09:04:37.272Z,49.10
2017-06-21T09:07:05.296Z,48.60
2017-06-21T09:09:33.308Z,47.70
2017-06-21T09:12:01.317Z,47.00
2017-06-21T09:14:29.328Z,47.10
2017-06-21T09:16:57.372Z,46.80
2017-06-21T09:19:25.380Z,47.70
2017-06-21T09:21:54.157Z,46.70
2017-06-21T09:24:22.956Z,45.90
2017-06-21T09:26:51.736Z,45.70
2017-06-21T09:29:20.521Z,46.10
2017-06-21T09:31:48.564Z,45.50
2017-06-21T09:34:16.568Z,45.70
2017-06-21T09:36:45.348Z,44.00
2017-06-21T09:39:14.160Z,44.80
2017-06-21T09:41:42.173Z,44.80
2017-06-21T09:44:10.185Z,45.20
2017-06-21T09:46:38.987Z,45.00
2017-06-21T09:49:06.999Z,44.90
2017-06-21T09:51:35.015Z,45.10
2017-06-21T09:54:03.053Z,43.70
2017-06-21T09:56:31.064Z,43.10
2017-06-21T09:58:59.084Z,43.30
2017-06-21T10:01:27.124Z,43.80
2017-06-21T10:03:55.136Z,43.20
2017-06-21T10:06:24.168Z,42.70
2017-06-21T10:08:52.200Z,42.70
2017-06-21T10:11:20.316Z,42.70
2017-06-21T10:13:48.279Z,41.90
2017-06-21T10:16:16.327Z,42.70
2017-06-21T10:18:45.135Z,40.80
2017-06-21T10:21:13.124Z,40.70
2017-06-21T10:23:41.143Z,40.30
2017-06-21T10:26:09.151Z,40.00
2017-06-21T10:28:37.160Z,40.40
2017-06-21T10:31:05.196Z,41.20
2017-06-21T10:33:33.207Z,40.00
2017-06-21T10:36:01.239Z,40.90
2017-06-21T10:38:29.279Z,41.10
2017-06-21T10:40:57.291Z,41.20
2017-06-21T10:43:25.299Z,41.10
2017-06-21T10:45:53.335Z,41.10
2017-06-21T10:48:21.352Z,40.80
2017-06-21T10:50:50.124Z,40.70
2017-06-21T10:53:18.175Z,40.70
2017-06-21T10:55:46.183Z,40.80
2017-06-21T10:58:14.199Z,40.40
2017-06-21T11:00:42.243Z,41.60
2017-06-21T11:03:10.255Z,40.90
2017-06-21T11:05:38.266Z,41.00
2017-06-21T11:08:07.080Z,40.80
2017-06-21T11:10:35.087Z,40.70
2017-06-21T11:13:03.104Z,41.10
2017-06-21T11:15:31.131Z,40.60
2017-06-21T11:17:59.151Z,40.90
2017-06-21T11:20:27.162Z,40.80
2017-06-21T11:22:55.179Z,39.80
2017-06-21T11:25:23.187Z,40.30
2017-06-21T11:27:51.194Z,40.10
2017-06-21T11:30:19.226Z,39.10
2017-06-21T11:32:47.243Z,39.90
2017-06-21T11:35:15.267Z,39.70
2017-06-21T11:37:43.298Z,39.30
2017-06-21T11:40:11.307Z,37.70
2017-06-21T11:42:39.315Z,38.60
2017-06-21T11:45:07.359Z,38.20
2017-06-21T11:47:35.362Z,38.50
2017-06-21T11:50:03.374Z,38.30
2017-06-21T11:52:31.390Z,37.10
2017-06-21T11:54:59.395Z,39.20
2017-06-21T11:57:27.402Z,38.60
2017-06-21T11:59:55.434Z,38.40
2017-06-21T12:02:23.442Z,38.50
2017-06-21T12:04:51.450Z,37.70
2017-06-21T12:07:19.487Z,36.60
2017-06-21T12:09:47.494Z,36.10
2017-06-21T12:12:16.271Z,36.00
2017-06-21T12:14:44.286Z,35.90
2017-06-21T12:17:12.294Z,36.00
2017-06-21T12:19:40.298Z,35.10
2017-06-21T12:22:08.338Z,34.90
2017-06-21T12:24:36.343Z,34.10
2017-06-21T12:27:04.356Z,35.20
2017-06-21T12:29:32.375Z,34.30
2017-06-21T12:32:00.390Z,34.30
2017-06-21T12:34:28.400Z,34.20
2017-06-21T12:36:56.441Z,33.30
2017-06-21T12:39:24.454Z,34.00
2017-06-21T12:41:52.489Z,33.70
2017-06-21T12:44:20.506Z,33.20
2017-06-21T12:46:48.516Z,33.10
2017-06-21T12:49:16.518Z,33.20
2017-06-21T12:51:45.298Z,32.60
2017-06-21T12:54:13.694Z,32.60
2017-06-21T12:56:41.653Z,33.00
2017-06-21T12:59:09.674Z,33.70
2017-06-21T13:01:37.678Z,33.80
2017-06-21T13:04:05.689Z,31.80
2017-06-21T13:06:33.710Z,31.90
2017-06-21T13:09:01.717Z,32.40
2017-06-21T13:11:29.718Z,32.90
2017-06-21T13:13:57.761Z,33.70
2017-06-21T13:16:25.770Z,34.30
2017-06-21T13:18:53.777Z,34.00
2017-06-21T13:21:21.866Z,33.40
2017-06-21T13:23:49.826Z,32.80
2017-06-21T13:26:17.829Z,30.70
2017-06-21T13:28:45.873Z,29.90
2017-06-21T13:31:13.889Z,30.10
2017-06-21T13:33:41.897Z,31.80
2017-06-21T13:36:10.681Z,32.80
2017-06-21T13:38:38.709Z,32.20
2017-06-21T13:41:06.722Z,31.20
2017-06-21T13:43:34.753Z,29.90
2017-06-21T13:46:02.761Z,30.80
2017-06-21T13:48:31.533Z,31.00
2017-06-21T13:50:59.562Z,30.90
2017-06-21T13:53:27.569Z,29.90
2017-06-21T13:55:55.577Z,30.20
2017-06-21T13:58:23.609Z,30.00
2017-06-21T14:00:51.621Z,29.80
2017-06-21T14:03:19.629Z,29.60
2017-06-21T14:05:47.669Z,29.20
2017-06-21T14:08:15.677Z,28.50
2017-06-21T14:10:43.693Z,28.80
2017-06-21T14:13:11.732Z,29.10
2017-06-21T14:15:39.741Z,28.20
2017-06-21T14:18:07.744Z,28.50
2017-06-21T14:20:35.765Z,28.70
2017-06-21T14:23:03.773Z,28.40
2017-06-21T14:25:31.781Z,28.20
2017-06-21T14:27:59.805Z,27.90
2017-06-21T14:30:27.813Z,28.00
2017-06-21T14:32:55.821Z,28.50
2017-06-21T14:35:23.853Z,28.80
2017-06-21T14:37:51.860Z,28.60
2017-06-21T14:40:19.869Z,28.40
2017-06-21T14:42:47.908Z,28.40
2017-06-21T14:45:15.912Z,28.50
2017-06-21T14:47:43.920Z,28.40
2017-06-21T14:50:12.740Z,29.20
2017-06-21T14:52:40.744Z,29.20
2017-06-21T14:55:08.749Z,28.80
2017-06-21T14:57:36.833Z,28.70
2017-06-21T15:00:04.801Z,28.90
2017-06-21T15:02:32.816Z,29.40
2017-06-21T15:05:00.849Z,28.90
2017-06-21T15:07:28.856Z,29.30
2017-06-21T15:09:56.864Z,29.50
2017-06-21T15:12:24.880Z,29.50
2017-06-21T15:14:52.889Z,30.30
2017-06-21T15:17:20.893Z,30.60
2017-06-21T15:19:48.924Z,30.70
2017-06-21T15:22:16.945Z,30.60
2017-06-21T15:24:44.952Z,30.40
2017-06-21T15:27:12.984Z,30.90
2017-06-21T15:29:40.991Z,30.20
2017-06-21T15:32:08.992Z,30.40
2017-06-21T15:34:37.788Z,30.70
2017-06-21T15:37:05.804Z,30.70
2017-06-21T15:39:33.816Z,31.20
2017-06-21T15:42:02.620Z,30.50
2017-06-21T15:44:30.640Z,30.50
2017-06-21T15:46:58.661Z,30.50
2017-06-21T15:49:26.704Z,31.00
2017-06-21T15:51:54.716Z,30.40
2017-06-21T15:54:22.724Z,31.30
2017-06-21T15:56:50.759Z,31.40
2017-06-21T15:59:18.772Z,31.50
2017-06-21T16:01:46.792Z,31.00
2017-06-21T16:04:15.471Z,31.40
2017-06-21T16:06:43.480Z,31.80
2017-06-21T16:09:11.488Z,31.60
2017-06-21T16:11:40.288Z,32.20
2017-06-21T16:14:08.311Z,32.20
2017-06-21T16:16:36.328Z,32.20
2017-06-21T16:19:04.356Z,32.50
2017-06-21T16:21:32.367Z,32.00
2017-06-21T16:24:00.380Z,31.40
2017-06-21T16:26:28.420Z,31.20
2017-06-21T16:28:56.432Z,31.50
2017-06-21T16:31:24.448Z,32.00
2017-06-21T16:33:52.487Z,32.00
2017-06-21T16:36:20.495Z,32.50
2017-06-21T16:38:48.504Z,32.40
2017-06-21T16:41:16.539Z,32.60
2017-06-21T16:43:44.555Z,32.70
2017-06-21T16:46:12.563Z,33.40
2017-06-21T16:48:40.611Z,33.80
2017-06-21T16:51:08.623Z,33.90
2017-06-21T16:53:36.635Z,34.10
2017-06-21T16:56:04.659Z,34.20
2017-06-21T16:58:32.671Z,34.90
2017-06-21T17:01:00.683Z,34.70
2017-06-21T17:03:28.731Z,34.80
2017-06-21T17:05:56.747Z,34.90
2017-06-21T17:08:24.759Z,35.40
2017-06-21T17:10:52.775Z,35.60
2017-06-21T17:13:20.787Z,35.10
2017-06-21T17:15:48.799Z,35.50
2017-06-21T17:18:16.848Z,35.50
2017-06-21T17:20:44.855Z,35.70
2017-06-21T17:23:12.867Z,36.00
2017-06-21T17:25:40.919Z,36.30
2017-06-21T17:28:08.927Z,36.00
2017-06-21T17:30:37.707Z,36.20
2017-06-21T17:33:05.727Z,35.80
2017-06-21T17:35:33.731Z,35.90
2017-06-21T17:38:01.743Z,36.20
2017-06-21T17:40:29.787Z,35.60
2017-06-21T17:42:57.791Z,35.90
2017-06-21T17:45:25.807Z,36.40
2017-06-21T17:47:53.830Z,37.00
2017-06-21T17:50:21.858Z,37.20
2017-06-21T17:52:49.863Z,37.60
2017-06-21T17:55:17.878Z,37.80
2017-06-21T17:57:45.886Z,37.50
2017-06-21T18:00:13.899Z,37.90
2017-06-21T18:02:41.914Z,38.30
2017-06-21T18:05:10.687Z,38.60
2017-06-21T18:07:38.701Z,38.60
2017-06-21T18:10:07.670Z,38.70
2017-06-21T18:12:35.678Z,38.70
2017-06-21T18:15:03.690Z,39.00
2017-06-21T18:17:31.742Z,39.30
2017-06-21T18:19:59.734Z,39.00
2017-06-21T18:22:27.747Z,39.00
2017-06-21T18:24:55.799Z,39.10
2017-06-21T18:27:24.751Z,39.60
2017-06-21T18:29:53.971Z,39.50
2017-06-21T18:32:22.758Z,39.90
2017-06-21T18:34:50.774Z,39.40
2017-06-21T18:37:18.786Z,39.80
2017-06-21T18:39:46.818Z,40.60
2017-06-21T18:42:14.822Z,40.80
2017-06-21T18:44:42.831Z,41.00
2017-06-21T18:47:10.862Z,41.10
2017-06-21T18:49:38.906Z,41.00
2017-06-21T18:52:06.930Z,41.20
2017-06-21T18:54:34.962Z,41.50
2017-06-21T18:57:02.982Z,41.70
2017-06-21T18:59:31.014Z,41.70
2017-06-21T19:01:59.054Z,41.90
2017-06-21T19:04:27.066Z,42.10
2017-06-21T19:06:55.846Z,42.20
2017-06-21T19:09:23.865Z,42.20
2017-06-21T19:11:51.878Z,42.40
2017-06-21T19:14:19.914Z,42.60
2017-06-21T19:16:47.940Z,43.00
2017-06-21T19:19:16.718Z,43.10
2017-06-21T19:21:44.730Z,43.10
2017-06-21T19:24:12.750Z,43.20
2017-06-21T19:26:40.758Z,43.40
2017-06-21T19:29:08.771Z,43.60
2017-06-21T19:31:36.802Z,43.70
2017-06-21T19:34:05.725Z,44.10
2017-06-21T19:36:33.734Z,44.50
2017-06-21T19:39:02.521Z,45.10
2017-06-21T19:41:31.293Z,45.50
2017-06-21T19:43:59.301Z,45.50
2017-06-21T19:46:27.342Z,46.60
2017-06-21T19:48:56.117Z,48.40
2017-06-21T19:51:30.030Z,48.40
2017-06-21T20:20:57.457Z,62.80
2017-06-21T20:23:25.473Z,66.00
2017-06-21T20:25:54.437Z,64.60
2017-06-21T20:28:23.249Z,59.20
2017-06-21T20:30:52.161Z,59.20
2017-06-21T20:33:20.173Z,60.90
2017-06-21T20:35:48.245Z,63.60
2017-06-21T20:38:26.093Z,62.60
2017-06-21T20:40:57.197Z,63.60
2017-06-21T20:43:27.117Z,61.10
2017-06-21T20:45:56.021Z,61.60
2017-06-21T20:48:24.033Z,58.90
2017-06-21T20:50:52.045Z,58.80
2017-06-21T20:53:24.517Z,56.80
2017-06-21T20:55:53.298Z,57.10
2017-06-21T20:58:22.973Z,57.90
2017-06-21T21:00:55.738Z,58.40
2017-06-21T21:03:27.313Z,57.40
2017-06-21T21:05:55.349Z,57.10
2017-06-21T21:08:23.352Z,56.90
2017-06-21T21:10:54.516Z,56.20
2017-06-21T21:13:24.204Z,56.30
2017-06-21T21:18:47.920Z,55.10
2017-06-21T21:21:20.716Z,58.00
2017-06-21T21:23:49.497Z,59.30
2017-06-21T21:26:23.408Z,59.30
2017-06-21T21:28:57.944Z,63.20
2017-06-21T21:31:26.889Z,63.10
2017-06-21T21:36:48.588Z,62.00
2017-06-21T21:39:18.536Z,61.80
2017-06-21T21:42:06.232Z,61.40
2017-06-21T21:44:51.065Z,58.10
2017-06-21T21:47:19.116Z,59.70
2017-06-21T21:49:51.880Z,59.60
2017-06-21T21:52:25.636Z,59.30
2017-06-21T21:54:54.548Z,60.40
2017-06-21T21:57:22.576Z,62.20
2017-06-21T21:59:54.219Z,61.40
2017-06-21T22:02:24.132Z,61.90
2017-06-21T22:04:52.144Z,60.80
2017-06-21T22:07:20.175Z,62.40
2017-06-21T22:09:48.964Z,63.40
2017-06-21T22:12:17.936Z,63.30
2017-06-21T22:14:45.980Z,64.30
2017-06-21T22:17:13.996Z,64.80
2017-06-21T22:19:42.016Z,65.70
2017-06-21T22:22:11.088Z,66.00
2017-06-21T22:24:42.309Z,65.70
2017-06-21T22:27:11.092Z,62.80
2017-06-21T22:29:40.012Z,62.80
2017-06-21T22:32:09.928Z,63.50
2017-06-21T22:34:38.859Z,64.40
2017-06-21T22:37:06.871Z,64.80
2017-06-21T22:39:36.855Z,64.50
2017-06-21T22:42:10.580Z,63.70
2017-06-21T22:44:39.375Z,63.10
2017-06-21T22:47:13.555Z,63.10
2017-06-21T22:49:42.475Z,63.60
2017-06-21T22:52:11.263Z,63.40
2017-06-21T22:54:41.199Z,63.40
2017-06-21T22:57:11.107Z,63.50
2017-06-21T22:59:41.031Z,63.40
2017-06-21T23:02:09.972Z,63.70
2017-06-21T23:04:38.879Z,63.70
2017-06-21T23:07:21.039Z,63.60
2017-06-21T23:09:49.047Z,63.30
2017-06-21T23:12:17.064Z,63.70
2017-06-21T23:14:45.444Z,64.10
2017-06-21T23:17:13.451Z,63.60
2017-06-21T23:19:41.467Z,63.40
2017-06-21T23:22:09.495Z,62.90
2017-06-21T23:24:37.507Z,62.60
2017-06-21T23:27:05.523Z,62.50
2017-06-21T23:29:33.563Z,62.20
2017-06-21T23:32:01.583Z,62.10
2017-06-21T23:34:29.598Z,63.40
2017-06-21T23:36:57.655Z,63.50
2017-06-21T23:39:25.680Z,64.70
2017-06-21T23:41:53.694Z,64.70
2017-06-21T23:44:21.755Z,64.30
2017-06-21T23:46:51.526Z,65.30
2017-06-21T23:49:19.546Z,65.30
2017-06-21T23:51:47.567Z,65.70
2017-06-21T23:54:15.583Z,66.30
2017-06-21T23:56:43.607Z,66.30
2017-06-21T23:59:11.622Z,66.60
